Southport, North Carolina
Current Conditions -  °F | °C
As of 6:15 AM on Wednesday 26 Nov 2014 (Local Time) from KSUT Reporting Station
Overcast Overcast  
Wind Chill: 20°   Ceiling: 5000
Heat Index: 20°   Visibility: 7mi
Dew Point: 18°   Wind: 9mph
Humidity: 86%   Direction: 190°S
Pressure: 29.75"   Gusts: 21mph
Location:  33.92°N, 78.02°W
Report Text: KSUT 261115Z AUTO 19008G18KT 7SM OVC050 20/18 A2975 RMK AO2 T02020178
Loading
Personal Weather Stations






























Interactive Weather Map New forecast layout! Learn more

10-Day Weather Forecast

Advertisements
Track Severe Weather on mobile